createdAt,value
2019-03-25T13:03:57.593Z,45.90
2019-03-25T13:07:14.633Z,45.10
2019-03-25T13:12:31.954Z,32.30
2019-03-25T13:15:01.563Z,32.50
2019-03-25T13:17:32.127Z,33.60
2019-03-25T13:20:01.380Z,33.00
2019-03-25T13:22:30.665Z,32.70
2019-03-25T13:25:00.049Z,33.00
2019-03-25T13:27:29.498Z,33.00
2019-03-25T13:29:59.907Z,33.20
2019-03-25T13:32:31.484Z,33.70
2019-03-25T13:35:03.170Z,33.50
2019-03-25T13:37:33.333Z,33.20
2019-03-25T13:40:03.539Z,33.40
2019-03-25T13:42:32.856Z,33.60
2019-03-25T13:45:02.155Z,33.60
2019-03-25T13:47:31.488Z,33.70
2019-03-25T13:50:00.708Z,33.30
2019-03-25T13:52:30.013Z,33.20
2019-03-25T13:54:59.240Z,33.60
2019-03-25T13:57:28.421Z,33.50
2019-03-25T14:00:03.130Z,33.00
2019-03-25T14:02:28.687Z,32.20
2019-03-25T14:04:58.046Z,32.20
2019-03-25T14:07:27.521Z,32.60
2019-03-25T14:09:56.932Z,33.10
2019-03-25T14:12:26.448Z,32.00
2019-03-25T14:14:55.738Z,31.50
2019-03-25T14:17:28.131Z,30.90
2019-03-25T14:19:57.436Z,30.50
2019-03-25T14:22:27.063Z,32.80
2019-03-25T14:24:56.393Z,30.30
2019-03-25T14:27:25.634Z,30.00
2019-03-25T14:29:55.005Z,30.10
2019-03-25T14:32:24.313Z,30.00
2019-03-25T14:34:53.658Z,29.40
2019-03-25T14:37:23.032Z,29.30
2019-03-25T14:39:52.376Z,29.00
2019-03-25T14:42:21.762Z,29.50
2019-03-25T14:44:51.001Z,29.60
2019-03-25T14:47:20.228Z,29.10
2019-03-25T14:50:09.026Z,29.10
2019-03-25T14:52:38.316Z,28.90
2019-03-25T14:55:07.606Z,29.70
2019-03-25T14:57:36.967Z,29.60
2019-03-25T15:00:07.631Z,30.30
2019-03-25T15:02:37.092Z,30.40
2019-03-25T15:05:07.028Z,31.10
2019-03-25T15:07:36.376Z,31.50
2019-03-25T15:10:06.750Z,31.20
2019-03-25T15:12:37.010Z,32.20
2019-03-25T15:15:08.041Z,32.30
2019-03-25T15:17:37.463Z,31.80
2019-03-25T15:20:10.111Z,32.00
2019-03-25T15:22:40.077Z,32.30
2019-03-25T15:25:11.467Z,32.60
2019-03-25T15:27:40.690Z,32.30
2019-03-25T15:30:10.471Z,32.40
2019-03-25T15:32:39.814Z,31.80
2019-03-25T15:35:09.221Z,32.10
2019-03-25T15:37:38.465Z,32.40
2019-03-25T15:40:11.624Z,31.60
2019-03-25T15:42:41.007Z,33.10
2019-03-25T15:45:10.303Z,32.50
2019-03-25T15:47:40.344Z,33.00
2019-03-25T15:50:11.157Z,33.40
2019-03-25T15:52:40.418Z,33.00
2019-03-25T15:55:09.677Z,33.10
2019-03-25T15:57:39.887Z,33.30
2019-03-25T16:00:15.814Z,33.30
2019-03-25T16:02:45.211Z,33.50
2019-03-25T16:05:14.849Z,33.10
2019-03-25T16:07:44.184Z,33.20
2019-03-25T16:10:15.638Z,33.00
2019-03-25T16:12:45.522Z,35.70
2019-03-25T16:15:18.063Z,35.70
2019-03-25T16:17:47.292Z,34.60
2019-03-25T16:20:16.635Z,37.70
2019-03-25T16:22:46.536Z,36.20
2019-03-25T16:25:19.253Z,34.60
2019-03-25T16:27:48.708Z,34.10
2019-03-25T16:30:17.956Z,34.60
2019-03-25T16:32:47.271Z,34.40
2019-03-25T16:35:16.527Z,34.80
2019-03-25T16:37:45.826Z,35.30
2019-03-25T16:40:15.131Z,34.60
2019-03-25T16:42:44.595Z,34.50
2019-03-25T16:45:15.442Z,34.80
2019-03-25T16:47:45.782Z,33.90
2019-03-25T16:50:15.201Z,34.10
2019-03-25T16:52:45.545Z,34.90
2019-03-25T16:55:14.796Z,34.80
2019-03-25T16:57:45.031Z,35.10
2019-03-25T17:00:14.288Z,35.80
2019-03-25T17:02:43.669Z,37.10
2019-03-25T17:05:12.989Z,38.00
2019-03-25T17:07:42.369Z,37.70
2019-03-25T17:10:11.596Z,38.10
2019-03-25T17:12:40.970Z,38.30
2019-03-25T17:15:10.319Z,38.10
2019-03-25T17:17:39.703Z,38.30
2019-03-25T17:20:10.596Z,39.30
2019-03-25T17:22:39.918Z,39.40
2019-03-25T17:25:09.208Z,39.90
2019-03-25T17:27:38.825Z,40.10
2019-03-25T17:30:14.104Z,40.50
2019-03-25T17:32:43.426Z,40.60
2019-03-25T17:35:13.795Z,40.90
2019-03-25T17:37:44.108Z,41.00
2019-03-25T17:40:13.520Z,41.20
2019-03-25T17:42:42.737Z,41.20
2019-03-25T17:45:12.044Z,41.30
2019-03-25T17:47:41.303Z,41.50
2019-03-25T17:50:10.643Z,40.90
2019-03-25T17:52:39.891Z,41.00
2019-03-25T17:55:10.395Z,41.20
2019-03-25T17:57:39.654Z,35.40
2019-03-25T18:00:10.680Z,34.40
2019-03-25T18:02:40.103Z,34.10
2019-03-25T18:05:09.722Z,34.80
2019-03-25T18:07:39.062Z,35.10
2019-03-25T18:10:08.472Z,35.20
2019-03-25T18:12:39.376Z,35.50
2019-03-25T18:15:10.493Z,34.60
2019-03-25T18:17:39.891Z,34.00
2019-03-25T18:20:17.945Z,34.00
2019-03-25T18:22:40.335Z,34.20
2019-03-25T18:25:09.728Z,34.90
2019-03-25T18:27:39.080Z,33.60
2019-03-25T18:30:08.448Z,33.60
2019-03-25T18:32:37.730Z,32.00
2019-03-25T18:35:07.085Z,32.10
2019-03-25T18:37:36.418Z,31.30
2019-03-25T18:40:05.755Z,30.10
2019-03-25T18:42:35.066Z,30.00
2019-03-25T18:45:05.554Z,28.40
2019-03-25T18:47:34.861Z,27.00
2019-03-25T18:50:06.102Z,26.40
2019-03-25T18:52:36.504Z,26.50
2019-03-25T18:55:07.435Z,27.40
2019-03-25T18:57:37.862Z,26.40
2019-03-25T19:00:12.198Z,25.80
2019-03-25T19:02:41.483Z,25.40
2019-03-25T19:05:10.815Z,25.40
2019-03-25T19:07:40.156Z,25.70
2019-03-25T19:10:14.549Z,25.70
2019-03-25T19:12:43.792Z,25.20
2019-03-25T19:15:12.985Z,24.90
2019-03-25T19:17:42.979Z,25.20
2019-03-25T19:20:14.107Z,25.20
2019-03-25T19:22:43.482Z,24.70
2019-03-25T19:25:12.668Z,24.40
2019-03-25T19:27:42.017Z,24.20
2019-03-25T19:30:11.374Z,24.40
2019-03-25T19:32:40.624Z,24.50
2019-03-25T19:35:09.909Z,24.70
2019-03-25T19:37:39.209Z,24.80
2019-03-25T19:40:09.841Z,24.80
2019-03-25T19:42:39.296Z,24.90
2019-03-25T19:45:09.141Z,24.90
2019-03-25T19:47:38.466Z,24.90
2019-03-25T19:50:08.457Z,25.30
2019-03-25T19:52:41.305Z,25.00
2019-03-25T19:55:13.127Z,24.50
2019-03-25T19:57:43.752Z,23.80
2019-03-25T20:00:14.744Z,23.60
2019-03-25T20:02:45.248Z,23.30
2019-03-25T20:05:18.422Z,23.20
2019-03-25T20:07:49.479Z,23.60
2019-03-25T20:10:27.639Z,24.50
2019-03-25T20:12:57.825Z,24.30
2019-03-25T20:15:27.648Z,23.20
2019-03-25T20:17:57.416Z,22.70
2019-03-25T20:20:26.994Z,22.90
2019-03-25T20:22:56.564Z,23.00
2019-03-25T20:25:26.639Z,22.70
2019-03-25T20:27:56.996Z,23.00
2019-03-25T20:30:26.462Z,22.90
2019-03-25T20:32:55.770Z,22.70
2019-03-25T20:35:25.213Z,22.80
2019-03-25T20:37:54.526Z,22.90
2019-03-25T20:40:23.848Z,22.00
2019-03-25T20:42:53.150Z,22.00
2019-03-25T20:45:22.892Z,21.50
2019-03-25T20:47:52.181Z,22.50
2019-03-25T20:50:21.547Z,21.90
2019-03-25T20:52:50.800Z,21.40
2019-03-25T20:55:20.139Z,21.50
2019-03-25T20:57:49.520Z,22.60
2019-03-25T21:00:22.055Z,23.70
2019-03-25T21:02:51.388Z,23.80
2019-03-25T21:05:20.724Z,24.10
2019-03-25T21:07:50.030Z,24.20
2019-03-25T21:10:19.408Z,23.90
2019-03-25T21:12:49.249Z,24.20
2019-03-25T21:15:18.837Z,22.40
2019-03-25T21:17:48.213Z,22.20
2019-03-25T21:20:17.492Z,21.90
2019-03-25T21:22:46.786Z,22.80
2019-03-25T21:25:16.406Z,21.20
2019-03-25T21:27:45.755Z,21.60
2019-03-25T21:30:15.060Z,16.80
2019-03-25T21:32:57.280Z,16.40
2019-03-25T21:35:15.450Z,15.70
2019-03-25T21:37:44.954Z,16.10
2019-03-25T21:40:14.233Z,16.90
2019-03-25T21:42:43.521Z,16.30
2019-03-25T21:45:12.932Z,15.70
2019-03-25T21:47:43.960Z,15.80
2019-03-25T21:50:13.475Z,15.50
2019-03-25T21:52:42.816Z,15.70
2019-03-25T21:55:12.168Z,15.70
2019-03-25T21:57:41.502Z,15.80
2019-03-25T22:00:10.872Z,16.00
2019-03-25T22:02:40.356Z,17.90
2019-03-25T22:05:09.802Z,22.40
2019-03-25T22:07:39.017Z,22.80
2019-03-25T22:10:08.332Z,22.30
2019-03-25T22:12:37.514Z,22.10
2019-03-25T22:15:08.464Z,24.40
2019-03-25T22:17:38.828Z,26.20
2019-03-25T22:20:08.756Z,26.20
2019-03-25T22:22:37.939Z,26.10
2019-03-25T22:25:09.153Z,26.80
2019-03-25T22:27:38.532Z,27.00
2019-03-25T22:30:07.849Z,25.50
2019-03-25T22:32:38.224Z,25.30
2019-03-25T22:35:07.464Z,24.90
2019-03-25T22:37:36.802Z,24.70
2019-03-25T22:40:07.714Z,24.80
2019-03-25T22:42:36.981Z,25.30
2019-03-25T22:45:06.224Z,27.80
2019-03-25T22:47:37.475Z,30.00
2019-03-25T22:50:07.588Z,31.00
2019-03-25T22:52:36.784Z,30.90
2019-03-25T22:55:06.721Z,31.40
2019-03-25T22:57:35.942Z,34.30
2019-03-25T23:00:06.846Z,37.10
2019-03-25T23:02:36.691Z,40.80
2019-03-25T23:05:06.731Z,41.20
2019-03-25T23:07:35.987Z,42.60
2019-03-25T23:10:05.195Z,45.70
2019-03-25T23:12:35.567Z,48.00
2019-03-25T23:15:05.684Z,50.70
2019-03-25T23:17:35.055Z,49.90
2019-03-25T23:20:04.966Z,43.70
2019-03-25T23:22:34.139Z,44.40
2019-03-25T23:25:03.868Z,38.70
2019-03-25T23:27:33.104Z,37.80
2019-03-25T23:30:02.376Z,37.40
2019-03-25T23:32:32.118Z,39.60
2019-03-25T23:35:01.361Z,42.70
2019-03-25T23:37:30.549Z,43.10
2019-03-25T23:40:00.243Z,48.60
2019-03-25T23:42:29.799Z,49.80
2019-03-25T23:44:59.026Z,51.10
2019-03-25T23:47:28.342Z,52.30
2019-03-25T23:49:57.587Z,53.80
2019-03-25T23:52:26.899Z,55.80
2019-03-25T23:54:56.137Z,57.30
2019-03-25T23:57:25.313Z,58.00
2019-03-25T23:59:55.573Z,58.50
